DW5920 Sevilla ES current weather conditions

sailwx.info

Wind from 233 at 0 knots gusting 4

Air temperature 23.9° C
Dewpoint 15.9° C

Last reported at 2018-Jun-21 23:02 UTC.
Time now 2018-Jun-21 23:48 UTC

Location: N 37°23' W 005°55'.
View on Google Maps.

See reports from other nearby stations

  
Tides and Currents Weather Stations Pressure Air Temp Water Temp Dewpoint Dewpoint Depression Visibility Wind Speed Wind Dir Waves Ship Positions
date/time (UTC)wind fromknots sea level pressurealtimeterstation pressurevisibilityair tempwater tempwave heightnotes
2018-Jun-21 23:02 233 0 gusting 4 23.9
2018-Jun-21 22:47 210 0 gusting 3 23.9
2018-Jun-21 22:32 175 0 gusting 2 23.9
2018-Jun-21 22:17 294 23.9
2018-Jun-21 22:02 330 24.4
2018-Jun-21 21:47 259 0 gusting 6 24.4
2018-Jun-21 21:32 226 1 gusting 6 25.0
2018-Jun-21 21:17 224 0 gusting 7 25.0
2018-Jun-21 21:02 226 1 gusting 7 25.6
2018-Jun-21 20:47 305 0 gusting 4 25.6
2018-Jun-21 20:32 240 0 gusting 5 26.1
2018-Jun-21 20:17 166 1 gusting 7 26.1
2018-Jun-21 20:02 274 1 gusting 6 26.7
2018-Jun-21 19:47 166 1 gusting 6 26.7
2018-Jun-21 19:32 319 2 gusting 9 27.2
2018-Jun-21 19:17 172 4 gusting 10 27.8
2018-Jun-21 19:02 251 2 gusting 7 28.3
2018-Jun-21 18:47 009 4 gusting 13 28.3
2018-Jun-21 18:32 153 5 gusting 11 28.9
2018-Jun-21 18:17 215 5 gusting 11 29.4
2018-Jun-21 18:02 079 6 gusting 10 29.4
2018-Jun-21 17:47 269 6 gusting 13 30.0
2018-Jun-21 17:32 224 5 gusting 11 31.1
2018-Jun-21 17:17 169 5 gusting 10 31.7
2018-Jun-21 17:02 255 3 gusting 10 32.2
2018-Jun-21 16:47 195 4 gusting 9 32.2
2018-Jun-21 16:32 226 4 gusting 11 32.8
2018-Jun-21 16:17 243 1 gusting 6 33.9
2018-Jun-21 16:02 233 0 gusting 6 33.9
2018-Jun-21 15:47 191 0 gusting 5 33.9
2018-Jun-21 15:32 336 1 gusting 6 33.3
2018-Jun-21 15:17 274 0 gusting 3 33.3
2018-Jun-21 15:02 109 1 gusting 6 33.3
2018-Jun-21 14:47 259 0 gusting 5 32.8
2018-Jun-21 14:32 345 3 gusting 7 32.2
2018-Jun-21 14:17 321 2 gusting 6 32.2
2018-Jun-21 14:02 252 1 gusting 5 32.8
2018-Jun-21 13:47 225 0 gusting 3 32.2
2018-Jun-21 13:32 212 1 gusting 5 32.2
2018-Jun-21 13:17 293 0 gusting 5 32.2
2018-Jun-21 13:02 264 0 gusting 4 32.2
2018-Jun-21 12:47 132 0 gusting 8 31.7
2018-Jun-21 12:32 278 0 gusting 5 31.1
2018-Jun-21 12:17 143 1 gusting 6 30.6
2018-Jun-21 12:02 215 0 gusting 5 30.6
2018-Jun-21 11:47 267 0 gusting 4 30.0
2018-Jun-21 11:32 224 0 gusting 3 30.0
2018-Jun-21 11:17 166 0 gusting 2 29.4
2018-Jun-21 11:02 142 29.4
2018-Jun-21 10:47 115 0 gusting 3 29.4
2018-Jun-21 10:32 089 0 gusting 4 28.3
2018-Jun-21 10:17 131 1 gusting 3 27.2
2018-Jun-21 10:02 094 0 gusting 4 27.8
2018-Jun-21 09:47 201 0 gusting 3 27.2
2018-Jun-21 09:32 174 0 gusting 2 26.7
2018-Jun-21 09:17 333 25.6
2018-Jun-21 09:02 301 25.0
2018-Jun-21 08:47 039 24.4
2018-Jun-21 08:32 158 0 gusting 2 23.9
2018-Jun-21 08:17 197 23.3
2018-Jun-21 08:02 200 1 gusting 3 22.2
2018-Jun-21 07:47 339 22.2
2018-Jun-21 07:32 193 21.7
2018-Jun-21 07:17 134 0 gusting 3 21.7
2018-Jun-21 07:02 259 21.7
2018-Jun-21 06:47 343 21.1
2018-Jun-21 06:32 349 2 gusting 6 21.1
2018-Jun-21 06:17 029 1 gusting 5 21.1
2018-Jun-21 06:02 058 1 gusting 7 21.1
2018-Jun-21 05:47 315 2 gusting 8 21.1
2018-Jun-21 05:32 051 2 gusting 6 21.1
2018-Jun-21 05:17 355 0 gusting 2 21.1
2018-Jun-21 05:02 317 21.1
2018-Jun-21 04:47 344 20.6
2018-Jun-21 04:32 135 1 gusting 2 21.1
2018-Jun-21 04:17 126 21.1
2018-Jun-21 04:02 078 0 gusting 3 21.1
2018-Jun-21 03:47 094 0 gusting 3 20.6
2018-Jun-21 03:32 136 21.1
2018-Jun-21 03:17 277 21.1
2018-Jun-21 03:02 128 0 gusting 4 21.1
2018-Jun-21 02:47 022 0 gusting 3 21.1
2018-Jun-21 02:32 138 21.1
2018-Jun-21 02:17 020 21.1
2018-Jun-21 02:02 121 0 gusting 6 21.1
2018-Jun-21 01:47 297 0 gusting 4 21.1
2018-Jun-21 01:32 233 3 gusting 8 21.1
2018-Jun-21 01:17 322 0 gusting 6 21.7
2018-Jun-21 01:02 094 21.1
2018-Jun-21 00:47 203 1 gusting 5 21.1
2018-Jun-21 00:32 106 1 gusting 4 21.7
2018-Jun-21 00:17 201 1 gusting 7 21.7
2018-Jun-21 00:02 283 2 gusting 6 21.7
2018-Jun-20 23:47 250 2 gusting 6 21.7
2018-Jun-20 23:32 212 0 gusting 5 21.7
2018-Jun-20 23:17 240 1 gusting 5 21.7
2018-Jun-20 23:02 203 2 gusting 6 22.2
2018-Jun-20 22:47 240 2 gusting 7 22.2
2018-Jun-20 22:32 225 2 gusting 8 22.2
2018-Jun-20 22:17 184 3 gusting 7 22.8
2018-Jun-20 22:02 119 2 gusting 7 22.8
2018-Jun-20 21:47 133 2 gusting 7 23.3
2018-Jun-20 21:32 207 3 gusting 10 23.3
2018-Jun-20 21:17 249 4 gusting 9 23.9
2018-Jun-20 21:02 226 4 gusting 11 24.4
2018-Jun-20 20:47 221 3 gusting 8 24.4
2018-Jun-20 20:32 252 3 gusting 9 24.4
2018-Jun-20 20:17 207 3 gusting 10 25.0
2018-Jun-20 20:02 195 4 gusting 9 25.0
2018-Jun-20 19:47 115 3 gusting 9 25.0
2018-Jun-20 19:32 232 3 gusting 9 25.6
2018-Jun-20 19:17 166 3 gusting 8 26.1
2018-Jun-20 19:02 156 3 gusting 10 26.7
2018-Jun-20 18:47 239 3 gusting 8 27.2
2018-Jun-20 18:32 161 4 gusting 12 28.3
2018-Jun-20 18:17 244 4 gusting 12 28.9
2018-Jun-20 18:02 194 4 gusting 9 28.9
2018-Jun-20 17:47 176 4 gusting 11 29.4
2018-Jun-20 17:32 145 4 gusting 11 30.6
2018-Jun-20 17:17 232 3 gusting 9 32.2
2018-Jun-20 17:02 191 4 gusting 10 32.2
2018-Jun-20 16:47 210 5 gusting 11 32.8
2018-Jun-20 16:32 198 2 gusting 9 34.4
2018-Jun-20 16:17 198 2 gusting 6 35.6
2018-Jun-20 16:02 327 0 gusting 4 35.0
2018-Jun-20 15:47 072 0 gusting 3 34.4
2018-Jun-20 15:32 018 0 gusting 5 34.4
2018-Jun-20 15:17 218 2 gusting 5 34.4
2018-Jun-20 15:02 259 0 gusting 6 34.4
2018-Jun-20 14:47 201 1 gusting 6 34.4
2018-Jun-20 14:32 242 0 gusting 4 34.4
2018-Jun-20 14:17 309 1 gusting 6 33.9
2018-Jun-20 14:02 309 0 gusting 4 34.4
2018-Jun-20 13:47 322 1 gusting 5 34.4
2018-Jun-20 13:32 271 0 gusting 5 33.3
2018-Jun-20 13:17 266 2 gusting 8 33.3
2018-Jun-20 13:02 229 1 gusting 6 32.8
2018-Jun-20 12:47 290 1 gusting 8 32.2
2018-Jun-20 12:32 300 1 gusting 6 32.2
2018-Jun-20 12:17 302 2 gusting 8 31.7
2018-Jun-20 12:02 303 2 gusting 7 31.1
2018-Jun-20 11:47 305 2 gusting 6 30.6
2018-Jun-20 11:32 148 2 gusting 7 30.0
2018-Jun-20 11:17 214 2 gusting 7 28.9
2018-Jun-20 11:02 219 5 gusting 9 28.3
2018-Jun-20 10:47 170 3 gusting 7 28.3
2018-Jun-20 10:32 249 1 gusting 6 29.4
2018-Jun-20 10:17 184 3 gusting 7 29.4
2018-Jun-20 10:02 149 3 gusting 8 29.4
2018-Jun-20 09:47 051 4 gusting 10 28.9
2018-Jun-20 09:32 074 5 gusting 10 27.8
2018-Jun-20 09:17 343 4 gusting 12 27.8
2018-Jun-20 09:02 066 6 gusting 12 27.2
2018-Jun-20 08:47 013 4 gusting 10 26.7
2018-Jun-20 08:32 348 4 gusting 10 26.1
2018-Jun-20 08:17 351 3 gusting 7 25.6
2018-Jun-20 08:02 018 3 gusting 9 25.0
2018-Jun-20 07:47 040 2 gusting 6 24.4
2018-Jun-20 07:32 037 1 gusting 4 23.9
2018-Jun-20 07:17 042 0 gusting 3 23.3
2018-Jun-20 07:02 328 0 gusting 5 22.8
2018-Jun-20 06:47 304 1 gusting 3 22.2
2018-Jun-20 06:32 323 1 gusting 4 22.2
2018-Jun-20 06:17 342 1 gusting 5 22.2
2018-Jun-20 06:02 039 1 gusting 5 22.2
2018-Jun-20 05:47 023 1 gusting 5 21.7
2018-Jun-20 05:32 013 2 gusting 6 21.7
2018-Jun-20 05:17 001 1 gusting 5 21.7
2018-Jun-20 05:02 340 1 gusting 4 21.7
2018-Jun-20 04:47 027 1 gusting 5 21.7
2018-Jun-20 04:32 025 1 gusting 4 21.7
2018-Jun-20 04:17 051 1 gusting 4 22.2
2018-Jun-20 04:02 326 1 gusting 5 22.2
2018-Jun-20 03:47 027 1 gusting 5 22.8
2018-Jun-20 03:32 313 0 gusting 4 22.8
2018-Jun-20 03:17 323 0 gusting 3 22.8
2018-Jun-20 03:02 248 2 gusting 9 23.3
2018-Jun-20 02:47 347 2 gusting 6 23.3
2018-Jun-20 02:32 343 1 gusting 4 23.3
2018-Jun-20 02:17 288 23.3
2018-Jun-20 02:02 263 0 gusting 3 23.9
2018-Jun-20 01:47 274 0 gusting 3 23.9
2018-Jun-20 01:32 269 0 gusting 2 23.9
2018-Jun-20 01:17 266 0 gusting 4 24.4
2018-Jun-20 01:02 305 0 gusting 4 24.4
2018-Jun-20 00:47 278 0 gusting 3 23.9
2018-Jun-20 00:32 214 24.4
2018-Jun-20 00:17 179 24.4
2018-Jun-20 00:02 172 24.4
2018-Jun-19 23:47 121 25.0
2018-Jun-19 23:32 172 0 gusting 1 25.6
2018-Jun-19 23:17 217 25.6
2018-Jun-19 23:02 319 26.1